Time;durP1;ratioP1;P1;durP2;ratioP2;P2;SDS_P1;SDS_P2;PMS_P1;PMS_P2;Temp;Humidity;BMP_temperature;BMP_pressure;BME280_temperature;BME280_humidity;BME280_pressure;Samples;Min_cycle;Max_cycle;Signal;HPM_P1;HPM_P2
2023/12/14 00:01:13;;;;;;;19.67;11.13;;;;;;;;;;5054371;28;20040;-91
2023/12/14 00:03:41;;;;;;;18.27;10.38;;;;;;;;;;5054715;28;20555;-91
2023/12/14 00:06:25;;;;;;;19.88;11.40;;;;;;;;;;5055533;28;20028;-91
2023/12/14 00:08:53;;;;;;;18.95;10.77;;;;;;;;;;5082342;28;20024;-88
2023/12/14 00:11:19;;;;;;;17.45;10.45;;;;;;;;;;5056384;28;20036;-91
2023/12/14 00:13:45;;;;;;;18.48;10.63;;;;;;;;;;5055781;28;20487;-92
2023/12/14 00:16:10;;;;;;;15.88;9.43;;;;;;;;;;5054227;28;21506;-91
2023/12/14 00:18:37;;;;;;;16.42;9.48;;;;;;;;;;5055258;28;20535;-91
2023/12/14 00:21:03;;;;;;;17.13;9.55;;;;;;;;;;5055312;28;20025;-92
2023/12/14 00:23:28;;;;;;;17.08;9.93;;;;;;;;;;5043808;28;20483;-91
2023/12/14 00:25:54;;;;;;;15.88;9.40;;;;;;;;;;5058428;28;20039;-91
2023/12/14 00:28:19;;;;;;;18.27;9.13;;;;;;;;;;5066200;28;20510;-91
2023/12/14 00:30:45;;;;;;;14.30;8.73;;;;;;;;;;5065285;28;20437;-92
2023/12/14 00:33:10;;;;;;;15.30;8.98;;;;;;;;;;5058378;28;20047;-91
2023/12/14 00:35:36;;;;;;;14.45;8.38;;;;;;;;;;5058212;28;20036;-92
2023/12/14 00:38:01;;;;;;;16.05;8.60;;;;;;;;;;5037513;28;20458;-91
2023/12/14 00:40:30;;;;;;;14.68;8.30;;;;;;;;;;5057605;28;20090;-91
2023/12/14 00:42:56;;;;;;;12.55;7.82;;;;;;;;;;5060132;28;20032;-91
2023/12/14 00:45:22;;;;;;;14.40;7.97;;;;;;;;;;5059482;28;20020;-92
2023/12/14 00:48:05;;;;;;;12.70;7.72;;;;;;;;;;5062411;28;20037;-92
2023/12/14 00:50:32;;;;;;;12.25;7.45;;;;;;;;;;5070369;28;20104;-91
2023/12/14 00:52:58;;;;;;;14.65;7.50;;;;;;;;;;5055600;28;20119;-91
2023/12/14 00:55:24;;;;;;;12.52;7.35;;;;;;;;;;5088310;28;20024;-91
2023/12/14 00:57:49;;;;;;;12.68;7.68;;;;;;;;;;5055061;28;20038;-91
2023/12/14 01:00:15;;;;;;;12.52;7.80;;;;;;;;;;5046188;28;20027;-92
2023/12/14 01:02:41;;;;;;;12.90;7.57;;;;;;;;;;5044010;28;20083;-91
2023/12/14 01:05:07;;;;;;;14.82;8.48;;;;;;;;;;5057406;28;20024;-92
2023/12/14 01:07:33;;;;;;;15.68;9.18;;;;;;;;;;5061827;28;20123;-92
2023/12/14 01:10:01;;;;;;;14.95;8.75;;;;;;;;;;5060241;28;20028;-90
2023/12/14 01:12:27;;;;;;;13.82;8.57;;;;;;;;;;5059247;28;20033;-91
2023/12/14 01:14:53;;;;;;;15.02;8.95;;;;;;;;;;5060741;28;20024;-91
2023/12/14 01:17:22;;;;;;;15.32;9.32;;;;;;;;;;5056502;28;20067;-92
2023/12/14 01:19:47;;;;;;;14.63;7.95;;;;;;;;;;5058672;28;20054;-93
2023/12/14 01:22:16;;;;;;;15.30;8.30;;;;;;;;;;5059403;28;20036;-91
2023/12/14 01:24:41;;;;;;;15.63;8.85;;;;;;;;;;5074910;28;20028;-92
2023/12/14 01:27:09;;;;;;;14.38;8.73;;;;;;;;;;5062976;28;20506;-92
2023/12/14 01:29:36;;;;;;;15.85;9.15;;;;;;;;;;5063656;28;20023;-91
2023/12/14 01:32:02;;;;;;;14.20;8.02;;;;;;;;;;5056557;28;20103;-92
2023/12/14 01:34:27;;;;;;;16.58;8.88;;;;;;;;;;5054261;28;20078;-94
2023/12/14 01:36:53;;;;;;;16.92;8.52;;;;;;;;;;5061942;28;20024;-93
2023/12/14 01:39:20;;;;;;;14.55;8.10;;;;;;;;;;5059752;28;20028;-93
2023/12/14 01:41:46;;;;;;;14.07;8.48;;;;;;;;;;5053483;28;20032;-93
2023/12/14 01:44:12;;;;;;;13.25;7.93;;;;;;;;;;5055309;28;20110;-91
2023/12/14 01:46:37;;;;;;;14.55;8.40;;;;;;;;;;5040767;28;20028;-92
2023/12/14 01:49:10;;;;;;;16.80;8.32;;;;;;;;;;5062199;28;20036;-93
2023/12/14 01:51:36;;;;;;;;;;;;;;;;;;5051388;28;20056;-93
2023/12/14 01:54:01;;;;;;;14.65;7.70;;;;;;;;;;5087666;28;19997;-93
2023/12/14 01:56:27;;;;;;;12.60;7.78;;;;;;;;;;5056260;28;20028;-91
2023/12/14 01:58:53;;;;;;;13.77;7.93;;;;;;;;;;5059463;28;20078;-92
2023/12/14 02:01:21;;;;;;;12.88;7.70;;;;;;;;;;5055035;28;20044;-93
2023/12/14 02:03:52;;;;;;;13.15;7.68;;;;;;;;;;5043699;28;20024;-92
2023/12/14 02:06:18;;;;;;;15.43;7.40;;;;;;;;;;5053853;28;20020;-92
2023/12/14 02:08:43;;;;;;;14.43;8.55;;;;;;;;;;5054468;28;20028;-92
2023/12/14 02:11:24;;;;;;;16.38;8.93;;;;;;;;;;5055138;28;20077;-91
2023/12/14 02:13:50;;;;;;;15.23;8.05;;;;;;;;;;5053451;28;20374;-91
2023/12/14 02:16:15;;;;;;;14.88;8.82;;;;;;;;;;5055724;28;20107;-92
2023/12/14 02:18:41;;;;;;;14.35;8.38;;;;;;;;;;5058919;28;20036;-92
2023/12/14 02:21:09;;;;;;;14.95;8.90;;;;;;;;;;5056953;28;20028;-91
2023/12/14 02:23:34;;;;;;;14.98;8.48;;;;;;;;;;5052163;28;20024;-92
2023/12/14 02:26:00;;;;;;;14.80;8.77;;;;;;;;;;5057651;28;20483;-92
2023/12/14 02:28:26;;;;;;;14.65;8.55;;;;;;;;;;5059335;28;20087;-92
2023/12/14 02:30:51;;;;;;;13.38;7.72;;;;;;;;;;5061230;28;20032;-87
2023/12/14 02:33:16;;;;;;;15.95;9.48;;;;;;;;;;5038491;28;20064;-88
2023/12/14 02:35:43;;;;;;;15.05;9.48;;;;;;;;;;5058072;28;20032;-87
2023/12/14 02:38:09;;;;;;;13.48;8.50;;;;;;;;;;5058324;28;20025;-87
2023/12/14 02:40:34;;;;;;;13.20;9.00;;;;;;;;;;5055648;28;20027;-88
2023/12/14 02:43:00;;;;;;;16.70;9.05;;;;;;;;;;5061449;28;20024;-87
2023/12/14 02:45:37;;;;;;;13.45;8.35;;;;;;;;;;5054231;28;20024;-87
2023/12/14 02:48:12;;;;;;;13.52;9.15;;;;;;;;;;5058640;28;20148;-88
2023/12/14 02:50:38;;;;;;;15.43;9.07;;;;;;;;;;5053260;28;20032;-87
2023/12/14 02:53:03;;;;;;;14.52;8.95;;;;;;;;;;5055747;28;20036;-87
2023/12/14 02:55:29;;;;;;;12.93;8.40;;;;;;;;;;5055506;28;20422;-88
2023/12/14 02:57:54;;;;;;;17.50;8.50;;;;;;;;;;5057614;28;20060;-87
2023/12/14 03:00:20;;;;;;;15.75;9.30;;;;;;;;;;5053722;28;20111;-88
2023/12/14 03:02:45;;;;;;;13.68;8.68;;;;;;;;;;5059340;28;20024;-87
2023/12/14 03:05:11;;;;;;;14.20;8.75;;;;;;;;;;5052163;28;20420;-88
2023/12/14 03:07:37;;;;;;;15.27;8.75;;;;;;;;;;5062170;28;20024;-87
2023/12/14 03:10:03;;;;;;;14.60;8.27;;;;;;;;;;5052274;28;20029;-87
2023/12/14 03:12:30;;;;;;;13.40;8.25;;;;;;;;;;5052314;28;20016;-88
2023/12/14 03:14:56;;;;;;;14.40;8.25;;;;;;;;;;5056657;28;20033;-87
2023/12/14 03:17:21;;;;;;;12.43;7.93;;;;;;;;;;5057080;28;20390;-87
2023/12/14 03:19:47;;;;;;;14.05;8.13;;;;;;;;;;5052225;28;20032;-87
2023/12/14 03:22:13;;;;;;;12.07;7.65;;;;;;;;;;5056867;28;20032;-87
2023/12/14 03:24:39;;;;;;;13.63;8.30;;;;;;;;;;5056091;28;20031;-88
2023/12/14 03:27:05;;;;;;;12.68;7.57;;;;;;;;;;5055520;28;20142;-88
2023/12/14 03:29:30;;;;;;;15.52;8.38;;;;;;;;;;5053413;28;20033;-87
2023/12/14 03:31:57;;;;;;;12.32;7.88;;;;;;;;;;5056976;28;20043;-88
2023/12/14 03:34:23;;;;;;;15.65;8.88;;;;;;;;;;5054334;28;20043;-87
2023/12/14 03:36:48;;;;;;;15.98;9.15;;;;;;;;;;5062967;28;20032;-87
2023/12/14 03:39:16;;;;;;;14.23;8.60;;;;;;;;;;5054282;28;20025;-92
2023/12/14 03:41:41;;;;;;;13.30;8.57;;;;;;;;;;5058482;28;20495;-91
2023/12/14 03:44:07;;;;;;;15.27;9.52;;;;;;;;;;5053887;28;20038;-92
2023/12/14 03:46:34;;;;;;;13.15;8.70;;;;;;;;;;5057094;28;20025;-91
2023/12/14 03:49:11;;;;;;;12.90;8.50;;;;;;;;;;5055050;28;20111;-87
2023/12/14 03:51:37;;;;;;;14.77;8.65;;;;;;;;;;5056535;28;20028;-88
2023/12/14 03:54:03;;;;;;;13.57;8.32;;;;;;;;;;5058060;28;20036;-87
2023/12/14 03:56:40;;;;;;;12.90;8.55;;;;;;;;;;5053570;28;20074;-87
2023/12/14 03:59:07;;;;;;;15.20;9.23;;;;;;;;;;5053008;28;20487;-87
2023/12/14 04:01:33;;;;;;;12.48;8.10;;;;;;;;;;5053790;28;20055;-87
2023/12/14 04:03:58;;;;;;;14.02;9.13;;;;;;;;;;5059204;28;20101;-87
2023/12/14 04:06:24;;;;;;;12.38;8.77;;;;;;;;;;5053008;28;20060;-87
2023/12/14 04:08:49;;;;;;;14.30;9.07;;;;;;;;;;5054450;28;20493;-88
2023/12/14 04:11:15;;;;;;;12.40;8.02;;;;;;;;;;5058022;28;20043;-88
2023/12/14 04:13:43;;;;;;;13.98;8.80;;;;;;;;;;5039220;28;20485;-87
2023/12/14 04:16:09;;;;;;;13.70;8.45;;;;;;;;;;5051374;28;20035;-87
2023/12/14 04:18:34;;;;;;;14.25;8.35;;;;;;;;;;5057233;28;20020;-88
2023/12/14 04:21:00;;;;;;;15.90;8.60;;;;;;;;;;5053338;28;20031;-87
2023/12/14 04:23:26;;;;;;;15.27;8.27;;;;;;;;;;5069248;28;20024;-87
2023/12/14 04:25:52;;;;;;;13.50;8.23;;;;;;;;;;5052430;28;20074;-87
2023/12/14 04:28:17;;;;;;;11.98;8.20;;;;;;;;;;5056934;28;20024;-87
2023/12/14 04:30:43;;;;;;;12.70;8.48;;;;;;;;;;5053912;28;20048;-87
2023/12/14 04:33:08;;;;;;;12.75;8.52;;;;;;;;;;5053648;28;20024;-88
2023/12/14 04:35:36;;;;;;;14.55;9.45;;;;;;;;;;5057035;28;20017;-87
2023/12/14 04:38:02;;;;;;;14.40;9.15;;;;;;;;;;5052687;28;20383;-88
2023/12/14 04:40:27;;;;;;;14.82;9.23;;;;;;;;;;5050593;28;20024;-87
2023/12/14 04:42:53;;;;;;;13.98;8.98;;;;;;;;;;5052962;28;20115;-88
2023/12/14 04:45:19;;;;;;;13.00;8.30;;;;;;;;;;5053983;28;20113;-87
2023/12/14 04:47:56;;;;;;;13.05;8.48;;;;;;;;;;5053476;28;20021;-88
2023/12/14 04:50:22;;;;;;;14.55;9.40;;;;;;;;;;5052262;28;20383;-87
2023/12/14 04:52:47;;;;;;;14.77;9.57;;;;;;;;;;5058511;28;20028;-87
2023/12/14 04:55:15;;;;;;;13.95;9.27;;;;;;;;;;5058215;28;20028;-87
2023/12/14 04:57:54;;;;;;;13.60;9.13;;;;;;;;;;5053028;28;20375;-87
2023/12/14 05:00:22;;;;;;;12.90;8.40;;;;;;;;;;5080887;28;20382;-91
2023/12/14 05:02:48;;;;;;;13.90;8.80;;;;;;;;;;5052751;28;20028;-92
2023/12/14 05:05:14;;;;;;;13.30;8.82;;;;;;;;;;5055158;28;20035;-92
2023/12/14 05:07:39;;;;;;;14.30;8.88;;;;;;;;;;5051225;28;20020;-91
2023/12/14 05:10:05;;;;;;;13.27;9.15;;;;;;;;;;5058703;28;20064;-91
2023/12/14 05:12:31;;;;;;;13.98;8.60;;;;;;;;;;5053225;28;20028;-92
2023/12/14 05:14:57;;;;;;;13.77;9.32;;;;;;;;;;5060039;28;20036;-91
2023/12/14 05:17:22;;;;;;;13.80;9.55;;;;;;;;;;5055525;28;20418;-91
2023/12/14 05:19:48;;;;;;;14.65;9.07;;;;;;;;;;5059120;28;20028;-91
2023/12/14 05:22:15;;;;;;;13.45;8.02;;;;;;;;;;5052859;28;20024;-91
2023/12/14 05:24:40;;;;;;;14.35;8.68;;;;;;;;;;5047455;28;20578;-92
2023/12/14 05:27:06;;;;;;;12.30;8.45;;;;;;;;;;5058931;28;20027;-91
2023/12/14 05:29:33;;;;;;;12.50;8.55;;;;;;;;;;5035997;28;20028;-91
2023/12/14 05:31:59;;;;;;;13.15;8.15;;;;;;;;;;5070301;28;20032;-91
2023/12/14 05:34:24;;;;;;;14.55;8.55;;;;;;;;;;5055733;28;20070;-91
2023/12/14 05:36:50;;;;;;;12.93;8.35;;;;;;;;;;5056371;28;20025;-91
2023/12/14 05:39:15;;;;;;;14.82;8.98;;;;;;;;;;5059639;28;20028;-91
2023/12/14 05:41:41;;;;;;;12.32;8.15;;;;;;;;;;5059613;28;20124;-92
2023/12/14 05:44:07;;;;;;;12.20;8.18;;;;;;;;;;5058633;28;20467;-91
2023/12/14 05:46:32;;;;;;;12.15;7.80;;;;;;;;;;5079912;28;20032;-91
2023/12/14 05:48:58;;;;;;;14.20;8.57;;;;;;;;;;5053847;28;20028;-91
2023/12/14 05:51:28;;;;;;;12.73;8.15;;;;;;;;;;5055431;28;20111;-92
2023/12/14 05:53:54;;;;;;;13.60;9.05;;;;;;;;;;5052303;28;20036;-92
2023/12/14 05:56:19;;;;;;;12.98;8.73;;;;;;;;;;5051699;28;20154;-92
2023/12/14 05:58:44;;;;;;;12.95;8.25;;;;;;;;;;5053381;28;20048;-90
2023/12/14 06:01:10;;;;;;;13.13;8.18;;;;;;;;;;5052599;28;20024;-88
2023/12/14 06:03:35;;;;;;;14.15;8.88;;;;;;;;;;5054881;28;20028;-88
2023/12/14 06:06:01;;;;;;;12.52;8.40;;;;;;;;;;5050561;28;20052;-88
2023/12/14 06:08:26;;;;;;;14.00;8.68;;;;;;;;;;5048464;28;20024;-88
2023/12/14 06:10:52;;;;;;;13.25;8.07;;;;;;;;;;5047412;28;20037;-91
2023/12/14 06:13:17;;;;;;;15.82;8.73;;;;;;;;;;5049604;28;20036;-90
2023/12/14 06:15:43;;;;;;;16.77;9.07;;;;;;;;;;5050690;28;20032;-90
2023/12/14 06:18:08;;;;;;;15.25;8.75;;;;;;;;;;5058755;28;20074;-92
2023/12/14 06:20:34;;;;;;;16.50;9.35;;;;;;;;;;5058686;28;20031;-91
2023/12/14 06:23:42;;;;;;;15.68;9.27;;;;;;;;;;5052733;28;20127;-92
2023/12/14 06:26:07;;;;;;;14.38;8.93;;;;;;;;;;5047253;28;20495;-92
2023/12/14 06:28:33;;;;;;;15.07;9.00;;;;;;;;;;5052659;28;20115;-91
2023/12/14 06:31:01;;;;;;;13.30;8.75;;;;;;;;;;5056042;28;20028;-92
2023/12/14 06:33:26;;;;;;;14.40;8.43;;;;;;;;;;5053218;28;20028;-91
2023/12/14 06:35:52;;;;;;;16.15;8.73;;;;;;;;;;5056336;28;20028;-90
2023/12/14 06:38:17;;;;;;;14.48;7.90;;;;;;;;;;5055019;28;20026;-90
2023/12/14 06:40:43;;;;;;;14.32;8.55;;;;;;;;;;5056080;28;20122;-91
2023/12/14 06:43:08;;;;;;;13.70;7.97;;;;;;;;;;5053466;28;20024;-90
2023/12/14 06:45:36;;;;;;;12.80;7.75;;;;;;;;;;5054457;28;20016;-90
2023/12/14 06:48:08;;;;;;;13.70;8.32;;;;;;;;;;5048652;28;20028;-90
2023/12/14 06:50:33;;;;;;;14.77;8.35;;;;;;;;;;5049846;28;20028;-91
2023/12/14 06:53:02;;;;;;;12.27;7.38;;;;;;;;;;5055168;28;20032;-90
2023/12/14 06:55:27;;;;;;;15.80;7.25;;;;;;;;;;5054724;28;20032;-91
2023/12/14 06:57:53;;;;;;;16.10;8.07;;;;;;;;;;5054343;28;20027;-90
2023/12/14 07:00:18;;;;;;;14.00;7.28;;;;;;;;;;5050726;28;20028;-90
2023/12/14 07:02:44;;;;;;;13.32;7.35;;;;;;;;;;5054097;28;20064;-90
2023/12/14 07:05:10;;;;;;;12.57;7.05;;;;;;;;;;5055260;28;20017;-92
2023/12/14 07:07:35;;;;;;;11.77;7.20;;;;;;;;;;5056257;28;20056;-90
2023/12/14 07:10:01;;;;;;;10.90;6.57;;;;;;;;;;5053565;28;20028;-90
2023/12/14 07:12:27;;;;;;;10.98;6.88;;;;;;;;;;5037992;28;20045;-91
2023/12/14 07:14:52;;;;;;;11.98;7.05;;;;;;;;;;5039054;28;20041;-91
2023/12/14 07:17:18;;;;;;;12.88;6.88;;;;;;;;;;5036081;28;20033;-90
2023/12/14 07:38:13;;;;;;;11.15;6.40;;;;;;;;;;6197482;22;1522797;-88
2023/12/14 07:40:39;;;;;;;10.15;5.88;;;;;;;;;;6191166;23;20005;-88
2023/12/14 07:43:08;;;;;;;8.70;5.35;;;;;;;;;;6190946;23;20407;-88
2023/12/14 07:45:34;;;;;;;11.55;6.43;;;;;;;;;;6190867;23;20009;-88
2023/12/14 07:47:59;;;;;;;11.38;6.57;;;;;;;;;;6191347;23;20005;-88
2023/12/14 07:50:26;;;;;;;9.48;6.28;;;;;;;;;;6192547;23;20005;-89
2023/12/14 07:52:52;;;;;;;11.52;5.68;;;;;;;;;;6192081;23;20320;-88
2023/12/14 07:55:18;;;;;;;12.30;6.00;;;;;;;;;;6190999;23;20342;-87
2023/12/14 07:57:46;;;;;;;10.02;6.05;;;;;;;;;;6191617;23;20422;-89
2023/12/14 08:00:12;;;;;;;12.68;5.90;;;;;;;;;;6191645;23;20094;-87
2023/12/14 08:02:38;;;;;;;11.00;5.93;;;;;;;;;;6191633;23;20043;-88
2023/12/14 08:05:04;;;;;;;9.13;5.72;;;;;;;;;;6191182;23;20035;-89
2023/12/14 08:07:34;;;;;;;13.82;6.15;;;;;;;;;;6190436;23;20005;-89
2023/12/14 08:10:00;;;;;;;10.85;6.45;;;;;;;;;;6190141;23;20009;-89
2023/12/14 08:12:26;;;;;;;8.75;5.70;;;;;;;;;;6191856;23;20047;-88
2023/12/14 08:14:52;;;;;;;11.65;6.55;;;;;;;;;;6191309;23;20076;-88
2023/12/14 08:17:17;;;;;;;10.73;6.32;;;;;;;;;;6191103;23;20024;-88
2023/12/14 08:19:43;;;;;;;9.30;5.60;;;;;;;;;;6191672;23;20040;-92
2023/12/14 08:22:11;;;;;;;9.25;5.65;;;;;;;;;;6192551;23;20011;-92
2023/12/14 08:24:43;;;;;;;10.57;6.05;;;;;;;;;;6191518;23;20031;-92
2023/12/14 08:27:09;;;;;;;11.05;6.07;;;;;;;;;;6192783;23;20092;-92
2023/12/14 08:29:34;;;;;;;9.82;6.20;;;;;;;;;;6190355;23;20043;-91
2023/12/14 08:32:00;;;;;;;10.63;5.80;;;;;;;;;;6184984;23;20012;-93
2023/12/14 08:34:27;;;;;;;9.50;5.95;;;;;;;;;;6185380;23;20407;-92
2023/12/14 08:36:53;;;;;;;10.13;6.15;;;;;;;;;;6184892;23;20005;-93
2023/12/14 08:39:19;;;;;;;10.35;5.93;;;;;;;;;;6184513;23;20065;-89
2023/12/14 08:41:48;;;;;;;10.60;5.90;;;;;;;;;;6184526;23;20009;-89
2023/12/14 08:44:18;;;;;;;9.48;5.50;;;;;;;;;;6184367;23;20009;-89
2023/12/14 08:46:46;;;;;;;8.98;5.20;;;;;;;;;;6184982;23;20073;-89
2023/12/14 08:49:13;;;;;;;10.68;6.15;;;;;;;;;;6184373;23;20028;-89
2023/12/14 08:51:39;;;;;;;10.07;6.03;;;;;;;;;;6184806;23;20009;-89
2023/12/14 08:54:06;;;;;;;8.90;5.68;;;;;;;;;;6184326;23;20001;-89
2023/12/14 08:56:35;;;;;;;10.15;5.75;;;;;;;;;;6184237;23;20012;-89
2023/12/14 08:59:03;;;;;;;9.13;6.07;;;;;;;;;;6184289;23;20013;-89
2023/12/14 09:01:29;;;;;;;9.57;5.93;;;;;;;;;;6184660;23;20008;-88
2023/12/14 09:03:54;;;;;;;8.70;5.65;;;;;;;;;;6184443;23;20083;-89
2023/12/14 09:06:20;;;;;;;8.88;5.25;;;;;;;;;;6184841;23;20016;-89
2023/12/14 09:08:46;;;;;;;9.13;5.55;;;;;;;;;;6184150;23;19997;-88
2023/12/14 09:11:12;;;;;;;9.95;5.45;;;;;;;;;;6184502;23;20423;-89
2023/12/14 09:13:40;;;;;;;10.07;5.55;;;;;;;;;;6184688;23;20016;-89
2023/12/14 09:16:06;;;;;;;9.70;5.90;;;;;;;;;;6183204;23;20005;-89
2023/12/14 09:18:32;;;;;;;11.80;6.43;;;;;;;;;;6183950;23;20012;-88
2023/12/14 09:20:57;;;;;;;12.43;5.85;;;;;;;;;;6183909;23;20009;-89
2023/12/14 09:23:23;;;;;;;10.00;6.10;;;;;;;;;;6184336;23;20004;-88
2023/12/14 09:25:49;;;;;;;10.55;5.97;;;;;;;;;;6183533;23;20016;-89
2023/12/14 09:28:15;;;;;;;10.70;6.47;;;;;;;;;;6183998;23;20004;-89
2023/12/14 09:30:40;;;;;;;14.75;6.43;;;;;;;;;;6184961;23;20375;-89
2023/12/14 09:33:08;;;;;;;9.55;6.03;;;;;;;;;;6184324;23;20009;-89
2023/12/14 09:35:35;;;;;;;10.18;5.97;;;;;;;;;;6183998;23;20013;-89
2023/12/14 09:38:01;;;;;;;10.05;5.97;;;;;;;;;;6183795;23;20371;-89
2023/12/14 09:40:26;;;;;;;9.60;6.43;;;;;;;;;;6184330;23;20008;-89
2023/12/14 09:42:53;;;;;;;10.20;5.78;;;;;;;;;;6184290;23;20004;-89
2023/12/14 09:45:23;;;;;;;10.98;6.28;;;;;;;;;;6184108;23;20500;-88
2023/12/14 09:47:49;;;;;;;9.68;6.25;;;;;;;;;;6183385;23;20088;-89
2023/12/14 09:50:16;;;;;;;9.35;6.22;;;;;;;;;;6184409;23;20091;-89
2023/12/14 09:52:45;;;;;;;10.40;6.03;;;;;;;;;;6183831;23;20005;-88
2023/12/14 09:55:11;;;;;;;9.13;5.65;;;;;;;;;;6184209;23;20009;-89
2023/12/14 09:57:37;;;;;;;10.65;6.30;;;;;;;;;;6182818;23;20009;-89
2023/12/14 10:00:10;;;;;;;11.52;6.07;;;;;;;;;;6183918;23;20511;-89
2023/12/14 10:02:35;;;;;;;9.23;5.45;;;;;;;;;;6183951;23;20028;-89
2023/12/14 10:05:01;;;;;;;9.38;5.80;;;;;;;;;;6183695;23;20450;-89
2023/12/14 10:07:27;;;;;;;9.27;5.97;;;;;;;;;;6183052;23;20036;-89
2023/12/14 10:09:55;;;;;;;9.30;5.75;;;;;;;;;;6183930;23;20011;-89
2023/12/14 10:12:22;;;;;;;9.02;5.68;;;;;;;;;;6183636;23;20354;-88
2023/12/14 10:15:01;;;;;;;9.52;6.20;;;;;;;;;;6183309;23;20351;-89
2023/12/14 10:17:31;;;;;;;11.05;6.63;;;;;;;;;;6183630;23;20342;-88
2023/12/14 10:20:03;;;;;;;11.32;5.90;;;;;;;;;;6183912;23;20031;-88
2023/12/14 10:22:32;;;;;;;8.70;5.82;;;;;;;;;;6182942;23;20013;-89
2023/12/14 10:24:58;;;;;;;9.63;5.75;;;;;;;;;;6182822;23;20023;-89
2023/12/14 10:27:23;;;;;;;10.18;6.47;;;;;;;;;;6183479;23;20004;-89
2023/12/14 10:29:50;;;;;;;10.65;6.40;;;;;;;;;;6183151;23;20001;-88
2023/12/14 10:32:17;;;;;;;11.10;6.85;;;;;;;;;;6183598;23;20430;-88
2023/12/14 10:34:42;;;;;;;11.82;6.78;;;;;;;;;;6183316;23;20000;-88
2023/12/14 10:37:10;;;;;;;10.05;6.72;;;;;;;;;;6182016;23;20515;-88
2023/12/14 10:39:35;;;;;;;9.65;5.82;;;;;;;;;;6183285;23;20036;-89
2023/12/14 10:42:08;;;;;;;10.05;5.97;;;;;;;;;;6182281;23;20478;-88
2023/12/14 10:44:36;;;;;;;14.95;6.82;;;;;;;;;;6183546;23;20005;-88
2023/12/14 10:47:04;;;;;;;10.32;6.00;;;;;;;;;;6182575;23;20029;-88
2023/12/14 10:49:30;;;;;;;9.65;6.13;;;;;;;;;;6182924;23;20032;-88
2023/12/14 10:51:57;;;;;;;9.70;5.93;;;;;;;;;;6183307;23;20016;-88
2023/12/14 10:54:27;;;;;;;9.57;6.18;;;;;;;;;;6182623;23;20354;-88
2023/12/14 10:56:56;;;;;;;11.45;6.53;;;;;;;;;;6183173;23;20335;-88
2023/12/14 10:59:23;;;;;;;9.55;6.05;;;;;;;;;;6183502;23;20084;-91
2023/12/14 11:01:57;;;;;;;10.27;6.78;;;;;;;;;;6184085;23;20009;-92
2023/12/14 11:04:22;;;;;;;10.13;6.38;;;;;;;;;;6184505;23;20032;-92
2023/12/14 11:06:48;;;;;;;10.88;6.60;;;;;;;;;;6183729;23;20005;-92
2023/12/14 11:09:18;;;;;;;9.82;6.32;;;;;;;;;;6183798;23;20012;-93
2023/12/14 11:11:49;;;;;;;9.98;5.82;;;;;;;;;;6183486;23;20009;-91
2023/12/14 11:14:18;;;;;;;11.13;6.78;;;;;;;;;;6184580;23;20009;-91
2023/12/14 11:16:47;;;;;;;9.63;6.57;;;;;;;;;;6183689;23;20009;-90
2023/12/14 11:19:22;;;;;;;11.75;7.10;;;;;;;;;;6183550;23;20009;-92
2023/12/14 11:21:55;;;;;;;9.32;5.88;;;;;;;;;;6183657;23;20080;-91
2023/12/14 11:24:21;;;;;;;;;;;;;;;;;;6184494;23;20013;-92
2023/12/14 11:26:49;;;;;;;8.95;5.63;;;;;;;;;;6182691;23;19904;-92
2023/12/14 11:29:15;;;;;;;10.18;6.90;;;;;;;;;;6183683;23;20427;-92
2023/12/14 11:31:40;;;;;;;10.13;6.47;;;;;;;;;;6183681;23;20055;-92
2023/12/14 11:34:07;;;;;;;9.10;6.05;;;;;;;;;;6157924;23;20309;-92
2023/12/14 11:37:14;;;;;;;11.60;6.75;;;;;;;;;;6183632;23;20405;-91
2023/12/14 11:40:09;;;;;;;10.63;5.95;;;;;;;;;;6111448;23;20092;-91
2023/12/14 11:42:38;;;;;;;10.75;6.80;;;;;;;;;;6152902;23;20447;-91
2023/12/14 11:45:03;;;;;;;11.77;6.80;;;;;;;;;;6183709;23;20121;-91
2023/12/14 11:47:29;;;;;;;10.60;6.47;;;;;;;;;;6183890;23;20040;-91
2023/12/14 11:49:54;;;;;;;10.52;6.90;;;;;;;;;;6183817;23;20001;-91
2023/12/14 11:52:21;;;;;;;12.02;7.18;;;;;;;;;;6183504;23;20454;-91
2023/12/14 11:54:47;;;;;;;10.02;6.32;;;;;;;;;;6184518;23;20005;-91
2023/12/14 11:57:12;;;;;;;11.40;7.13;;;;;;;;;;6183852;23;20071;-92
2023/12/14 11:59:38;;;;;;;12.82;7.20;;;;;;;;;;6183615;23;20005;-90
2023/12/14 12:02:04;;;;;;;12.23;7.32;;;;;;;;;;6183866;23;20020;-91
2023/12/14 12:04:30;;;;;;;11.90;7.05;;;;;;;;;;6182791;23;20009;-91
2023/12/14 12:07:01;;;;;;;12.50;7.82;;;;;;;;;;6185128;23;20023;-91
2023/12/14 12:09:41;;;;;;;10.35;6.90;;;;;;;;;;6184489;23;20032;-89
2023/12/14 12:12:12;;;;;;;12.85;7.47;;;;;;;;;;6183166;23;20007;-88
2023/12/14 12:14:38;;;;;;;10.38;6.70;;;;;;;;;;6183705;23;20056;-89
2023/12/14 12:17:05;;;;;;;11.63;7.40;;;;;;;;;;6184848;23;20017;-88
2023/12/14 12:19:32;;;;;;;11.35;6.70;;;;;;;;;;6184495;23;20005;-88
2023/12/14 12:22:00;;;;;;;10.57;6.20;;;;;;;;;;6159917;23;20097;-88
2023/12/14 12:24:26;;;;;;;12.07;6.88;;;;;;;;;;6159665;23;20062;-88
2023/12/14 12:26:51;;;;;;;13.05;7.63;;;;;;;;;;6184273;23;20436;-88
2023/12/14 12:29:17;;;;;;;13.05;6.85;;;;;;;;;;6185844;23;20000;-87
2023/12/14 12:31:42;;;;;;;10.20;6.40;;;;;;;;;;6184155;23;20005;-88
2023/12/14 12:34:08;;;;;;;12.32;7.60;;;;;;;;;;6184147;23;20011;-88
2023/12/14 12:36:34;;;;;;;11.07;6.93;;;;;;;;;;6184739;23;20020;-88
2023/12/14 12:39:00;;;;;;;11.23;7.05;;;;;;;;;;6183162;23;20428;-89
2023/12/14 12:41:25;;;;;;;9.93;6.68;;;;;;;;;;6183986;23;20005;-88
2023/12/14 12:43:51;;;;;;;11.25;6.43;;;;;;;;;;6184062;23;20341;-88
2023/12/14 12:46:16;;;;;;;10.93;6.82;;;;;;;;;;6184863;23;20037;-88
2023/12/14 12:48:42;;;;;;;9.88;6.38;;;;;;;;;;6183733;23;20012;-89
2023/12/14 12:51:07;;;;;;;10.65;6.53;;;;;;;;;;6183850;23;20001;-88
2023/12/14 12:53:33;;;;;;;10.75;6.75;;;;;;;;;;6184275;23;20426;-87
2023/12/14 12:55:59;;;;;;;10.48;6.90;;;;;;;;;;6183393;23;20012;-88
2023/12/14 12:58:24;;;;;;;12.63;7.45;;;;;;;;;;6183502;23;20005;-88
2023/12/14 13:00:50;;;;;;;13.82;6.78;;;;;;;;;;6186417;23;20104;-91
2023/12/14 13:03:15;;;;;;;12.32;6.32;;;;;;;;;;6173870;23;20343;-92
2023/12/14 13:05:42;;;;;;;11.32;7.18;;;;;;;;;;6177141;23;20044;-91
2023/12/14 13:08:07;;;;;;;12.57;7.38;;;;;;;;;;6177517;23;20411;-91
2023/12/14 13:10:33;;;;;;;11.77;7.15;;;;;;;;;;6177381;23;20177;-92
2023/12/14 13:12:59;;;;;;;10.77;6.82;;;;;;;;;;6177605;23;20026;-90
2023/12/14 13:15:25;;;;;;;11.70;7.38;;;;;;;;;;6177484;23;20328;-91
2023/12/14 13:17:51;;;;;;;10.88;6.75;;;;;;;;;;6176885;23;20015;-92
2023/12/14 13:20:19;;;;;;;12.30;7.13;;;;;;;;;;6177408;23;20001;-91
2023/12/14 13:22:45;;;;;;;12.05;6.93;;;;;;;;;;6177620;23;20005;-91
2023/12/14 13:25:11;;;;;;;11.55;7.40;;;;;;;;;;6149894;23;20044;-92
2023/12/14 13:27:36;;;;;;;12.25;7.53;;;;;;;;;;6177523;23;20092;-91
2023/12/14 13:30:04;;;;;;;11.00;7.07;;;;;;;;;;6176461;23;20551;-92
2023/12/14 13:32:29;;;;;;;12.98;7.43;;;;;;;;;;6176785;23;20000;-92
2023/12/14 13:34:55;;;;;;;9.63;6.55;;;;;;;;;;6177336;23;20374;-91
2023/12/14 13:37:20;;;;;;;10.55;7.25;;;;;;;;;;6176787;23;20386;-92
2023/12/14 13:39:47;;;;;;;13.02;7.63;;;;;;;;;;6176356;23;20327;-92
2023/12/14 13:42:15;;;;;;;13.80;7.68;;;;;;;;;;6177429;23;20016;-91
2023/12/14 13:44:41;;;;;;;13.48;7.28;;;;;;;;;;6176846;23;20469;-92
2023/12/14 13:47:07;;;;;;;11.10;6.80;;;;;;;;;;6176381;23;20421;-91
2023/12/14 13:49:33;;;;;;;11.25;6.72;;;;;;;;;;6177103;23;20487;-91
2023/12/14 13:51:59;;;;;;;11.90;6.28;;;;;;;;;;6180097;23;20005;-92
2023/12/14 13:54:24;;;;;;;12.15;6.68;;;;;;;;;;6183839;23;20012;-91
2023/12/14 13:56:50;;;;;;;9.52;6.53;;;;;;;;;;6183916;23;20084;-92
2023/12/14 13:59:15;;;;;;;10.10;6.35;;;;;;;;;;6183929;23;20320;-92
2023/12/14 14:01:41;;;;;;;13.68;7.07;;;;;;;;;;6183603;23;20088;-93
2023/12/14 14:04:06;;;;;;;12.80;7.20;;;;;;;;;;6183786;23;20028;-93
2023/12/14 14:06:32;;;;;;;12.43;7.50;;;;;;;;;;6185318;23;20028;-92
2023/12/14 14:08:57;;;;;;;12.05;7.72;;;;;;;;;;6184863;23;20370;-88
2023/12/14 14:11:23;;;;;;;11.20;7.20;;;;;;;;;;6183600;23;20001;-87
2023/12/14 14:13:48;;;;;;;10.38;7.00;;;;;;;;;;6183869;23;20036;-88
2023/12/14 14:16:14;;;;;;;11.77;7.53;;;;;;;;;;6182240;23;20036;-88
2023/12/14 14:18:39;;;;;;;11.63;7.50;;;;;;;;;;6184021;23;20320;-88
2023/12/14 14:21:07;;;;;;;12.18;7.85;;;;;;;;;;6183112;23;20005;-89
2023/12/14 14:23:34;;;;;;;11.32;6.80;;;;;;;;;;6183168;23;20004;-88
2023/12/14 14:25:59;;;;;;;10.45;6.55;;;;;;;;;;6183161;23;20032;-88
2023/12/14 14:28:25;;;;;;;11.63;6.95;;;;;;;;;;6183363;23;20001;-88
2023/12/14 14:30:50;;;;;;;11.75;6.90;;;;;;;;;;6184880;23;20012;-88
2023/12/14 14:33:19;;;;;;;14.68;7.60;;;;;;;;;;6182972;23;20009;-88
2023/12/14 14:35:45;;;;;;;10.25;6.75;;;;;;;;;;6183352;23;20013;-88
2023/12/14 14:38:12;;;;;;;11.10;7.03;;;;;;;;;;6183075;23;20079;-88
2023/12/14 14:40:38;;;;;;;11.10;7.35;;;;;;;;;;6183133;23;20015;-88
2023/12/14 14:43:04;;;;;;;13.77;7.50;;;;;;;;;;6183406;23;20379;-88
2023/12/14 14:45:30;;;;;;;13.30;7.75;;;;;;;;;;6183296;23;20113;-88
2023/12/14 14:47:55;;;;;;;10.95;6.50;;;;;;;;;;6183775;23;20009;-87